• Join FlightAware (Why Join?)
  • Login
  • US Flag 
01:33AM EST


 

Airport Tracker/Info


-or-


 

Live Flight TrackerFlight Track Log ✈ XOJ552 ✈ 11-May-2013 ✈ KDAL - KLWB

Flight Track Log - Related Links

Times and Time Zones

All times are in EDT time to prevent confusion due to time zone crossing. See the XOJ552 flight status page for this flight to view local times or setup timezone preferences in your user account.

Time Position Orientation Groundspeed Altitude Reporting Facility
EDT Latitude Longitude Course Direction KTS MPH feet Rate Location/Type
11:26AM 32.8500 -96.8667 337° Northwest 154 177 1,400  Level Dallas / Fort Worth TRACON
11:27AM 32.9167 -96.9000 337° Northwest 243 280 5,700 2,880 Climbing Dallas / Fort Worth TRACON
11:28AM 32.9333 -96.8167 77° East 275 316 8,100 3,180 Climbing Dallas / Fort Worth TRACON
11:30AM 32.9478 -96.6114 85° East 334 384 15,200 3,180 Climbing Fort Worth Center
11:31AM 32.9575 -96.4972 84° East 364 419 17,800 2,580 Climbing Fort Worth Center
11:32AM 32.9689 -96.3561 84° East 391 450 20,400 2,400 Climbing Fort Worth Center
11:33AM 32.9844 -96.2297 82° East 422 486 22,600 2,280 Climbing Fort Worth Center
11:34AM 33.0078 -96.0658 80° East 446 513 25,000 2,340 Climbing Fort Worth Center
11:35AM 33.0272 -95.9267 81° East 463 533 27,300 2,100 Climbing Fort Worth Center
11:36AM 33.0522 -95.7553 80° East 468 539 29,200 1,680 Climbing Fort Worth Center
11:37AM 33.0728 -95.5914 81° East 489 563 30,700 1,560 Climbing Fort Worth Center
11:38AM 33.1142 -95.4269 73° East 496 571 32,400 1,500 Climbing Fort Worth Center
11:39AM 33.1636 -95.2619 70° East 510 587 33,700 1,380 Climbing Fort Worth Center
11:40AM 33.2150 -95.0944 70° East 525 604 35,200 1,320 Climbing Fort Worth Center
11:41AM 33.2658 -94.9242 70° East 532 612 36,400 1,200 Climbing Fort Worth Center
11:42AM 33.3167 -94.7511 71° East 537 618 37,600 1,140 Climbing Fort Worth Center
11:43AM 33.3672 -94.5806 70° East 542 624 38,700 1,080 Climbing Fort Worth Center
11:44AM 33.4194 -94.4094 70° East 547 629 39,800 1,020 Climbing Fort Worth Center
11:45AM 33.4694 -94.2361 71° East 547 629 40,800 540 Climbing Fort Worth Center
11:46AM 33.5256 -94.0647 69° East 547 629 41,000 60 Climbing Fort Worth Center
11:47AM 33.5800 -93.9156 66° East 552 635 41,000  Level Fort Worth Center
11:48AM 33.6419 -93.7483 66° East 552 635 41,000  Level Fort Worth Center
11:49AM 33.7058 -93.5833 65° Northeast 547 629 41,000  Level Fort Worth Center
11:50AM 33.7833 -93.3864 65° Northeast 553 636 41,000  Level Memphis Center
11:51AM 33.8456 -93.2208 66° East 548 631 41,000  Level Memphis Center
11:52AM 33.9100 -93.0528 65° Northeast 543 625 41,000  Level Memphis Center
11:53AM 33.9719 -92.8894 65° Northeast 543 625 41,000  Level Memphis Center
11:54AM 34.0356 -92.7208 65° Northeast 538 619 41,000  Level Memphis Center
11:55AM 34.0883 -92.5717 67° East 538 619 41,000  Level Memphis Center
11:56AM 34.1497 -92.4053 66° East 538 619 41,000  Level Memphis Center
11:57AM 34.2108 -92.2383 66° East 538 619 41,000  Level Memphis Center
11:58AM 34.2694 -92.0764 66° East 538 619 41,000  Level Memphis Center
11:59AM 34.3408 -91.8867 65° Northeast 547 629 41,000  Level Memphis Center
12:00PM 34.4011 -91.7214 66° East 547 629 41,000  Level Memphis Center
12:01PM 34.4614 -91.5561 66° East 540 621 41,000  Level Memphis Center
12:02PM 34.5233 -91.3856 66° East 540 621 41,000  Level Memphis Center
12:03PM 34.5744 -91.2350 68° East 540 621 41,000  Level Memphis Center
12:04PM 34.6361 -91.0664 66° East 540 621 41,000  Level Memphis Center
12:05PM 34.6994 -90.8953 66° East 540 621 41,000  Level Memphis Center
12:06PM 34.7606 -90.7261 66° East 540 621 41,000  Level Memphis Center
12:07PM 34.8172 -90.5594 67° East 540 621 41,000  Level Memphis Center
12:08PM 34.8781 -90.3900 66° East 540 621 41,000  Level Memphis Center
12:09PM 34.9425 -90.2025 67° East 540 621 41,000  Level Memphis Center
12:10PM 35.0028 -90.0375 66° East 540 621 41,000  Level Memphis Center
12:11PM 35.0647 -89.8622 67° East 540 621 41,000  Level Memphis Center
12:12PM 35.1244 -89.6919 67° East 547 629 41,000  Level Memphis Center
12:13PM 35.1756 -89.5392 68° East 541 623 41,000  Level Memphis Center
12:14PM 35.2244 -89.3658 71° East 534 615 41,000  Level Memphis Center
12:15PM 35.2333 -89.1800 87° East 534 615 41,000  Level Memphis Center
12:16PM 35.2858 -89.0064 70° East 539 620 41,000  Level Memphis Center
12:17PM 35.3464 -88.8347 67° East 544 626 41,000  Level Memphis Center
12:18PM 35.4128 -88.6475 66° East 539 620 41,000  Level Memphis Center
12:19PM 35.4708 -88.4781 67° East 539 620 41,000  Level Memphis Center
12:20PM 35.5306 -88.3083 67° East 539 620 41,000  Level Memphis Center
12:21PM 35.5803 -88.1694 66° East 539 620 41,000  Level Memphis Center
12:22PM 35.6497 -87.9708 67° East 529 609 41,000  Level Memphis Center
12:23PM 35.7108 -87.7978 66° East 529 609 41,000  Level Memphis Center
12:24PM 35.7678 -87.6272 68° East 540 621 41,000  Level Memphis Center
12:25PM 35.8283 -87.4536 67° East 540 621 41,000  Level Memphis Center
12:26PM 35.8850 -87.2850 67° East 535 616 41,000  Level Memphis Center
12:27PM 35.9450 -87.1111 67° East 543 625 41,000  Level Memphis Center
12:28PM 36.0008 -86.9394 68° East 535 616 41,000  Level Memphis Center
12:29PM 36.0606 -86.7625 67° East 546 628 41,000  Level Memphis Center
12:30PM 36.1200 -86.5875 67° East 551 634 41,000  Level Memphis Center
12:31PM 36.1792 -86.4100 68° East 551 634 41,000  Level Memphis Center
12:32PM 36.2381 -86.2375 67° East 543 625 41,000  Level Memphis Center
12:35PM 36.3822 -85.7989 68° East 550 633 41,000  Level Indianapolis Center
12:36PM 36.4314 -85.6464 68° East 547 629 41,000  Level Indianapolis Center
12:37PM 36.4992 -85.4344 68° East 547 629 41,000  Level Indianapolis Center
12:38PM 36.5569 -85.2578 68° East 551 634 41,000  Level Indianapolis Center
12:39PM 36.6128 -85.0783 69° East 553 636 41,000  Level Indianapolis Center
12:40PM 36.6675 -84.9003 69° East 550 633 41,000  Level Indianapolis Center
12:41PM 36.7236 -84.7217 69° East 552 635 41,000  Level Indianapolis Center
12:42PM 36.7797 -84.5444 68° East 550 633 41,000  Level Indianapolis Center
12:43PM 36.8339 -84.3728 68° East 550 633 41,000  Level Indianapolis Center
12:44PM 36.8881 -84.1939 69° East 550 633 41,000  Level Indianapolis Center
12:45PM 36.9431 -84.0144 69° East 551 634 41,000  Level Indianapolis Center
12:46PM 37.0092 -83.8036 69° East 559 643 41,000  Level Indianapolis Center
12:47PM 37.0636 -83.6256 69° East 550 633 41,000  Level Indianapolis Center
12:48PM 37.1167 -83.4464 70° East 549 632 41,000  Level Indianapolis Center
12:49PM 37.1700 -83.2661 70° East 547 629 41,000  Level Indianapolis Center
12:50PM 37.2239 -83.0861 69° East 548 631 41,000 -120 Level Indianapolis Center
12:51PM 37.2764 -82.9064 70° East 544 626 40,800 -1,080 Descending Indianapolis Center
12:52PM 37.3278 -82.7286 70° East 539 620 38,900 -1,920 Descending Indianapolis Center
12:53PM 37.3811 -82.5472 70° East 550 633 36,900 -2,040 Descending Indianapolis Center
12:54PM 37.4372 -82.3547 70° East 580 667 34,800 -2,160 Descending Indianapolis Center
12:55PM 37.4928 -82.1592 70° East 591 680 32,500 -2,280 Descending Indianapolis Center
12:56PM 37.5444 -81.9728 71° East 567 652 30,200 -2,880 Descending Indianapolis Center
12:57PM 37.6022 -81.7719 70° East 522 601 26,700 -3,420 Descending Indianapolis Center
12:58PM 37.6475 -81.6089 71° East 497 572 23,300 -3,360 Descending Indianapolis Center
12:59PM 37.6919 -81.4497 71° East 472 543 19,900 -3,120 Descending Indianapolis Center
01:00PM 37.7308 -81.3061 71° East 449 517 17,000 -3,120 Descending Indianapolis Center
01:01PM 37.7583 -81.2000 72° East 434 499 14,500 -3,000 Descending Washington Center
01:02PM 37.7853 -81.0681 75° East 412 474 11,800 -1,980 Descending Washington Center
01:03PM 37.7997 -80.9378 82° East 388 447 10,500 -1,320 Descending Washington Center
01:04PM 37.8125 -80.8333 81° East 345 397 9,300 -1,020 Descending Washington Center
01:05PM 37.8228 -80.7422 82° East 308 354 8,500 -900 Descending Washington Center
01:06PM 37.8372 -80.6511 79° East 282 325 7,500 -960 Descending Washington Center
01:07PM 37.8636 -80.5661 69° East 263 303 6,600 -720 Descending Washington Center
01:08PM 37.8897 -80.4914 66° East 240 276 6,200 -780 Descending Washington Center
01:09PM 37.9117 -80.4139 70° East 217 250 5,100 -1,140 Descending Washington Center
01:10PM 37.9344 -80.3653 59° Northeast 192 221 3,900 -900 Descending Washington Center
01:11PM 37.8967 -80.3681 183° South 71 82 3,300 -360 Descending Washington Center
01:12PM 37.8850 -80.3489 128° Southeast 71 82 3,300  Level Washington Center